createdAt,value
2023-01-09T00:01:55.326Z,10.57
2023-01-09T00:04:21.794Z,10.03
2023-01-09T00:06:53.874Z,10.62
2023-01-09T00:09:21.619Z,10.66
2023-01-09T00:11:48.354Z,10.74
2023-01-09T00:14:16.072Z,10.43
2023-01-09T00:16:42.463Z,10.32
2023-01-09T00:19:09.177Z,10.57
2023-01-09T00:21:35.983Z,10.62
2023-01-09T00:24:02.439Z,10.69
2023-01-09T00:26:28.803Z,10.65
2023-01-09T00:28:55.123Z,10.23
2023-01-09T00:31:23.355Z,10.79
2023-01-09T00:33:59.737Z,10.54
2023-01-09T00:36:26.733Z,10.85
2023-01-09T00:38:53.072Z,10.40
2023-01-09T00:41:24.146Z,10.08
2023-01-09T00:43:55.308Z,10.62
2023-01-09T00:46:31.233Z,10.62
2023-01-09T00:48:58.355Z,10.11
2023-01-09T00:51:24.711Z,10.68
2023-01-09T00:53:52.130Z,10.48
2023-01-09T00:56:20.671Z,10.80
2023-01-09T00:58:48.068Z,10.49
2023-01-09T01:01:14.737Z,10.52
2023-01-09T01:03:41.146Z,10.07
2023-01-09T01:06:26.061Z,10.59
2023-01-09T01:08:52.410Z,10.64
2023-01-09T01:11:18.752Z,10.56
2023-01-09T01:13:45.088Z,10.53
2023-01-09T01:16:13.454Z,10.40
2023-01-09T01:18:40.449Z,10.74
2023-01-09T01:21:08.582Z,10.05
2023-01-09T01:23:36.407Z,10.45
2023-01-09T01:26:07.916Z,10.83
2023-01-09T01:28:34.524Z,10.53
2023-01-09T01:31:01.101Z,10.47
2023-01-09T01:33:27.503Z,10.36
2023-01-09T01:36:10.142Z,10.54
2023-01-09T01:38:37.854Z,10.45
2023-01-09T01:41:04.816Z,10.36
2023-01-09T01:43:54.664Z,10.40
2023-01-09T01:46:21.201Z,10.04
2023-01-09T01:48:53.113Z,10.09
2023-01-09T01:51:23.420Z,9.91
2023-01-09T01:53:54.301Z,10.55
2023-01-09T01:56:29.227Z,9.76
2023-01-09T01:59:11.454Z,10.25
2023-01-09T02:01:41.244Z,10.19
2023-01-09T02:04:08.496Z,10.38
2023-01-09T02:06:35.845Z,10.37
2023-01-09T02:09:04.616Z,10.42
2023-01-09T02:11:31.681Z,10.33
2023-01-09T02:13:59.226Z,10.35
2023-01-09T02:16:47.989Z,10.26
2023-01-09T02:19:39.258Z,10.45
2023-01-09T02:22:27.420Z,10.42
2023-01-09T02:25:16.547Z,10.47
2023-01-09T02:28:13.876Z,10.42
2023-01-09T02:30:48.815Z,10.56
2023-01-09T02:33:36.776Z,10.19
2023-01-09T02:36:12.090Z,10.27
2023-01-09T02:38:44.810Z,10.00
2023-01-09T02:41:18.730Z,10.31
2023-01-09T02:43:45.156Z,10.11
2023-01-09T02:46:20.160Z,10.25
2023-01-09T02:48:49.298Z,9.99
2023-01-09T02:51:36.694Z,9.73
2023-01-09T02:54:14.865Z,10.28
2023-01-09T02:56:54.725Z,10.05
2023-01-09T02:59:23.913Z,10.25
2023-01-09T03:02:13.542Z,9.67
2023-01-09T03:04:56.952Z,10.27
2023-01-09T03:07:31.660Z,10.04
2023-01-09T03:10:06.528Z,9.55
2023-01-09T03:12:33.421Z,9.48
2023-01-09T03:15:02.477Z,10.03
2023-01-09T03:17:40.146Z,9.88
2023-01-09T03:20:11.746Z,10.24
2023-01-09T03:22:40.524Z,9.95
2023-01-09T03:25:07.169Z,9.90
2023-01-09T03:27:33.521Z,10.07
2023-01-09T03:29:59.877Z,10.16
2023-01-09T03:32:27.693Z,9.33
2023-01-09T03:34:54.148Z,9.79
2023-01-09T03:37:20.494Z,10.13
2023-01-09T03:39:46.799Z,9.61
2023-01-09T03:42:13.129Z,10.11
2023-01-09T03:44:39.453Z,10.19
2023-01-09T03:47:05.839Z,10.20
2023-01-09T03:49:32.159Z,10.02
2023-01-09T03:51:58.505Z,9.84
2023-01-09T03:54:24.932Z,10.11
2023-01-09T03:56:51.303Z,9.99
2023-01-09T03:59:17.623Z,9.65
2023-01-09T04:01:44.071Z,9.03
2023-01-09T04:04:10.572Z,10.08
2023-01-09T04:06:36.963Z,10.04
2023-01-09T04:09:03.317Z,10.20
2023-01-09T04:11:29.640Z,10.12
2023-01-09T04:13:55.991Z,10.09
2023-01-09T04:16:22.364Z,10.02
2023-01-09T04:18:48.748Z,10.12
2023-01-09T04:21:15.080Z,10.02
2023-01-09T04:23:41.385Z,10.09
2023-01-09T04:26:07.934Z,10.22
2023-01-09T04:28:34.304Z,10.30
2023-01-09T04:31:02.409Z,10.13
2023-01-09T04:33:29.183Z,10.33
2023-01-09T04:35:55.576Z,10.10
2023-01-09T04:38:21.993Z,10.24
2023-01-09T04:40:49.045Z,10.49
2023-01-09T04:43:15.489Z,10.20
2023-01-09T04:45:41.938Z,9.66
2023-01-09T04:48:08.354Z,10.24
2023-01-09T04:50:34.686Z,10.18
2023-01-09T04:53:01.254Z,10.27
2023-01-09T04:55:27.672Z,10.18
2023-01-09T04:57:54.020Z,10.40
2023-01-09T05:00:20.415Z,10.04
2023-01-09T05:02:46.813Z,9.80
2023-01-09T05:05:13.240Z,10.03
2023-01-09T05:07:39.863Z,9.55
2023-01-09T05:10:07.465Z,10.17
2023-01-09T05:12:36.128Z,9.11
2023-01-09T05:15:03.918Z,10.04
2023-01-09T05:17:30.315Z,10.20
2023-01-09T05:19:56.719Z,9.75
2023-01-09T05:22:23.222Z,9.22
2023-01-09T05:24:49.582Z,9.34
2023-01-09T05:27:16.235Z,10.52
2023-01-09T05:29:42.640Z,10.31
2023-01-09T05:32:09.022Z,10.25
2023-01-09T05:34:35.410Z,9.53
2023-01-09T05:37:01.844Z,10.07
2023-01-09T05:39:28.355Z,9.78
2023-01-09T05:41:54.806Z,9.67
2023-01-09T05:44:21.216Z,10.39
2023-01-09T05:46:48.220Z,9.59
2023-01-09T05:49:14.749Z,9.22
2023-01-09T05:51:41.156Z,10.29
2023-01-09T05:54:07.546Z,10.57
2023-01-09T05:56:33.992Z,10.35
2023-01-09T05:59:00.407Z,10.14
2023-01-09T06:01:27.066Z,10.50
2023-01-09T06:03:53.528Z,9.70
2023-01-09T06:06:19.895Z,10.25
2023-01-09T06:08:46.262Z,9.61
2023-01-09T06:11:12.600Z,10.17
2023-01-09T06:13:38.975Z,10.01
2023-01-09T06:16:06.480Z,10.54
2023-01-09T06:18:33.026Z,9.88
2023-01-09T06:20:59.437Z,9.70
2023-01-09T06:23:25.787Z,9.72
2023-01-09T06:25:52.295Z,10.12
2023-01-09T06:28:18.658Z,9.33
2023-01-09T06:30:45.325Z,10.02
2023-01-09T06:33:11.724Z,10.44
2023-01-09T06:35:38.081Z,9.82
2023-01-09T06:38:04.792Z,9.84
2023-01-09T06:40:31.170Z,9.51
2023-01-09T06:42:57.511Z,10.12
2023-01-09T06:45:23.937Z,9.84
2023-01-09T06:47:50.491Z,10.16
2023-01-09T06:50:17.455Z,10.47
2023-01-09T06:52:46.353Z,10.40
2023-01-09T06:55:12.830Z,10.22
2023-01-09T06:57:42.801Z,10.53
2023-01-09T07:00:09.890Z,9.86
2023-01-09T07:02:36.359Z,10.28
2023-01-09T07:05:03.283Z,9.83
2023-01-09T07:07:29.656Z,10.31
2023-01-09T07:09:56.021Z,10.38
2023-01-09T07:12:22.496Z,9.70
2023-01-09T07:14:49.043Z,9.86
2023-01-09T07:17:15.592Z,10.30
2023-01-09T07:19:42.075Z,10.16
2023-01-09T07:22:08.739Z,9.65
2023-01-09T07:24:35.222Z,10.28
2023-01-09T07:27:03.759Z,9.89
2023-01-09T07:29:30.386Z,10.22
2023-01-09T07:31:57.128Z,10.63
2023-01-09T07:34:23.634Z,10.54
2023-01-09T07:36:51.159Z,10.29
2023-01-09T07:39:17.590Z,10.68
2023-01-09T07:41:45.009Z,10.81
2023-01-09T07:44:11.567Z,9.64
2023-01-09T07:46:38.133Z,10.01
2023-01-09T07:49:04.620Z,10.86
2023-01-09T07:51:37.461Z,10.55
2023-01-09T07:54:04.978Z,9.95
2023-01-09T07:56:31.448Z,10.16
2023-01-09T07:58:57.845Z,9.73
2023-01-09T08:01:24.297Z,9.78
2023-01-09T08:03:50.756Z,10.61
2023-01-09T08:06:17.358Z,9.65
2023-01-09T08:08:43.803Z,10.10
2023-01-09T08:11:10.293Z,10.77
2023-01-09T08:13:36.746Z,10.28
2023-01-09T08:16:04.649Z,9.87
2023-01-09T08:18:31.068Z,10.13
2023-01-09T08:20:57.508Z,9.87
2023-01-09T08:23:23.918Z,9.80
2023-01-09T08:25:50.301Z,10.29
2023-01-09T08:28:17.903Z,10.63
2023-01-09T08:30:44.493Z,11.13
2023-01-09T08:33:10.915Z,9.97
2023-01-09T08:35:38.039Z,9.92
2023-01-09T08:38:04.986Z,11.08
2023-01-09T08:40:31.435Z,9.85
2023-01-09T08:43:16.741Z,10.28
2023-01-09T08:46:03.559Z,10.26
2023-01-09T08:48:29.915Z,10.19
2023-01-09T08:50:58.821Z,10.89
2023-01-09T08:53:25.238Z,10.69
2023-01-09T08:55:54.586Z,9.80
2023-01-09T08:58:20.992Z,10.62
2023-01-09T09:00:47.365Z,11.18
2023-01-09T09:03:13.840Z,10.54
2023-01-09T09:05:40.332Z,10.84
2023-01-09T09:08:07.169Z,10.46
2023-01-09T09:10:33.935Z,11.15
2023-01-09T09:13:00.753Z,10.43
2023-01-09T09:15:28.437Z,10.89
2023-01-09T09:18:00.582Z,10.68
2023-01-09T09:20:30.199Z,11.46
2023-01-09T09:22:57.314Z,10.78
2023-01-09T09:25:29.565Z,10.22
2023-01-09T09:27:59.356Z,10.51
2023-01-09T09:30:25.833Z,10.80
2023-01-09T09:32:52.275Z,10.86
2023-01-09T09:35:20.838Z,10.87
2023-01-09T09:37:55.868Z,10.93
2023-01-09T09:40:45.722Z,10.62
2023-01-09T09:43:36.835Z,11.06
2023-01-09T09:46:19.459Z,9.99
2023-01-09T09:48:55.918Z,10.22
2023-01-09T09:51:50.675Z,11.51
2023-01-09T09:54:27.344Z,11.50
2023-01-09T09:56:57.833Z,11.10
2023-01-09T09:59:32.375Z,11.29
2023-01-09T10:02:04.428Z,11.05
2023-01-09T10:04:33.618Z,10.43
2023-01-09T10:07:09.486Z,10.44
2023-01-09T10:09:55.511Z,11.16
2023-01-09T10:12:29.491Z,10.99
2023-01-09T10:15:02.236Z,10.37
2023-01-09T10:17:38.388Z,11.50
2023-01-09T10:20:41.897Z,11.57
2023-01-09T10:23:29.701Z,11.24
2023-01-09T10:26:22.064Z,11.44
2023-01-09T10:29:15.916Z,10.55
2023-01-09T10:31:52.874Z,11.52
2023-01-09T10:34:40.037Z,10.63
2023-01-09T10:37:20.351Z,11.49
2023-01-09T10:39:56.074Z,11.13
2023-01-09T10:42:26.329Z,11.67
2023-01-09T10:45:02.847Z,10.58
2023-01-09T10:47:34.318Z,10.71
2023-01-09T10:50:13.813Z,10.82
2023-01-09T10:52:42.458Z,11.64
2023-01-09T10:55:35.782Z,12.00
2023-01-09T10:58:11.328Z,11.80
2023-01-09T11:00:39.424Z,11.86
2023-01-09T11:03:18.686Z,11.22
2023-01-09T11:05:52.057Z,11.36
2023-01-09T11:08:25.461Z,11.52
2023-01-09T11:10:54.942Z,11.80
2023-01-09T11:13:25.157Z,10.53
2023-01-09T11:16:06.520Z,11.36
2023-01-09T11:18:37.385Z,11.77
2023-01-09T11:21:36.042Z,11.88
2023-01-09T11:24:26.335Z,12.02
2023-01-09T11:27:14.225Z,11.05
2023-01-09T11:29:43.194Z,11.10
2023-01-09T11:32:24.690Z,10.67
2023-01-09T11:34:51.273Z,10.57
2023-01-09T11:37:29.937Z,10.87
2023-01-09T11:39:59.296Z,10.60
2023-01-09T11:42:46.305Z,11.16
2023-01-09T11:45:17.656Z,11.03
2023-01-09T11:47:44.960Z,11.18
2023-01-09T11:50:19.022Z,11.61
2023-01-09T11:52:46.765Z,11.22
2023-01-09T11:55:19.369Z,11.12
2023-01-09T11:57:45.798Z,10.17
2023-01-09T12:00:24.265Z,11.11
2023-01-09T12:03:02.922Z,10.66
2023-01-09T12:05:53.808Z,11.32
2023-01-09T12:08:29.255Z,10.98
2023-01-09T12:11:24.336Z,11.45
2023-01-09T12:14:02.616Z,11.34
2023-01-09T12:16:36.364Z,10.86
2023-01-09T12:19:24.138Z,10.83
2023-01-09T12:22:16.400Z,10.92
2023-01-09T12:25:07.552Z,11.33
2023-01-09T12:28:04.259Z,11.24
2023-01-09T12:31:10.366Z,11.21
2023-01-09T12:34:13.437Z,11.49
2023-01-09T12:37:19.661Z,11.21
2023-01-09T12:40:17.057Z,11.36
2023-01-09T12:43:02.418Z,11.11
2023-01-09T12:45:34.729Z,11.53
2023-01-09T12:48:14.139Z,10.97
2023-01-09T12:50:49.540Z,11.17
2023-01-09T12:53:38.845Z,11.43
2023-01-09T12:56:12.027Z,11.52
2023-01-09T12:58:49.424Z,11.72
2023-01-09T13:01:48.544Z,11.81
2023-01-09T13:04:20.910Z,11.38
2023-01-09T13:06:53.603Z,11.68
2023-01-09T13:09:33.248Z,11.60
2023-01-09T13:12:08.845Z,11.50
2023-01-09T13:14:53.072Z,11.67
2023-01-09T13:17:31.212Z,11.43
2023-01-09T13:19:57.673Z,11.23
2023-01-09T13:22:27.483Z,11.20
2023-01-09T13:25:19.516Z,10.79
2023-01-09T13:27:55.077Z,11.00
2023-01-09T13:30:30.454Z,11.44
2023-01-09T13:33:21.825Z,11.40
2023-01-09T13:35:53.812Z,11.44
2023-01-09T13:38:23.513Z,11.39
2023-01-09T13:41:28.859Z,11.47
2023-01-09T13:43:59.517Z,11.55
2023-01-09T13:46:38.086Z,11.62
2023-01-09T13:49:04.852Z,11.22
2023-01-09T13:51:58.894Z,10.89
2023-01-09T13:54:47.040Z,11.36
2023-01-09T13:57:19.400Z,11.40
2023-01-09T13:59:49.776Z,11.53
2023-01-09T14:02:46.859Z,11.05
2023-01-09T14:05:36.257Z,11.24
2023-01-09T14:08:11.445Z,11.11
2023-01-09T14:10:47.431Z,11.11
2023-01-09T14:13:21.606Z,11.23
2023-01-09T14:15:49.541Z,11.49
2023-01-09T14:18:29.396Z,11.02
2023-01-09T14:20:59.503Z,11.02
2023-01-09T14:23:50.430Z,11.01
2023-01-09T14:26:20.087Z,10.81
2023-01-09T14:28:46.587Z,10.80
2023-01-09T14:31:31.128Z,11.11
2023-01-09T14:34:24.087Z,11.29
2023-01-09T14:37:01.245Z,10.88
2023-01-09T14:39:31.904Z,11.02
2023-01-09T14:42:06.180Z,11.20
2023-01-09T14:44:32.637Z,10.99
2023-01-09T14:47:10.936Z,11.16
2023-01-09T14:49:41.698Z,10.48
2023-01-09T14:52:20.562Z,11.19
2023-01-09T14:54:49.352Z,10.27
2023-01-09T14:57:26.008Z,11.32
2023-01-09T15:00:00.792Z,10.56
2023-01-09T15:02:38.484Z,10.88
2023-01-09T15:05:12.636Z,10.86
2023-01-09T15:07:48.412Z,10.88
2023-01-09T15:10:19.111Z,10.43
2023-01-09T15:12:48.036Z,10.54
2023-01-09T15:15:15.917Z,10.98
2023-01-09T15:17:46.347Z,10.03
2023-01-09T15:20:25.407Z,10.37
2023-01-09T15:22:54.785Z,11.22
2023-01-09T15:25:38.585Z,10.16
2023-01-09T15:28:22.310Z,11.27
2023-01-09T15:31:14.020Z,11.32
2023-01-09T15:33:42.453Z,10.96
2023-01-09T15:36:32.967Z,10.70
2023-01-09T15:39:00.060Z,10.60
2023-01-09T15:41:47.603Z,11.21
2023-01-09T15:44:20.337Z,10.37
2023-01-09T15:46:50.002Z,10.81
2023-01-09T15:49:17.289Z,10.84
2023-01-09T15:51:45.690Z,10.23
2023-01-09T15:54:17.542Z,10.75
2023-01-09T15:56:45.800Z,10.81
2023-01-09T15:59:41.487Z,10.63
2023-01-09T16:02:32.668Z,10.65
2023-01-09T16:04:59.139Z,10.61
2023-01-09T16:07:25.547Z,10.68
2023-01-09T16:09:54.793Z,10.93
2023-01-09T16:12:24.914Z,10.61
2023-01-09T16:14:57.620Z,10.76
2023-01-09T16:17:26.301Z,10.63
2023-01-09T16:19:58.455Z,10.55
2023-01-09T16:22:29.822Z,10.82
2023-01-09T16:24:59.777Z,10.25
2023-01-09T16:27:28.615Z,10.92
2023-01-09T16:29:58.285Z,10.76
2023-01-09T16:32:29.705Z,10.63
2023-01-09T16:34:58.840Z,10.84
2023-01-09T16:37:26.813Z,10.29
2023-01-09T16:40:05.749Z,10.96
2023-01-09T16:42:54.079Z,9.96
2023-01-09T16:45:21.080Z,10.91
2023-01-09T16:47:47.440Z,10.91
2023-01-09T16:50:13.997Z,10.96
2023-01-09T16:52:40.437Z,10.21
2023-01-09T16:55:07.105Z,10.79
2023-01-09T16:57:34.575Z,10.71
2023-01-09T17:00:01.544Z,10.56
2023-01-09T17:02:28.015Z,10.40
2023-01-09T17:04:59.124Z,10.90
2023-01-09T17:07:25.579Z,10.74
2023-01-09T17:09:53.130Z,11.06
2023-01-09T17:12:22.077Z,10.83
2023-01-09T17:14:49.153Z,10.19
2023-01-09T17:17:17.176Z,10.77
2023-01-09T17:19:43.928Z,10.38
2023-01-09T17:22:10.325Z,9.83
2023-01-09T17:24:55.219Z,10.41
2023-01-09T17:27:45.483Z,10.61
2023-01-09T17:30:19.854Z,10.63
2023-01-09T17:32:47.096Z,10.83
2023-01-09T17:35:15.347Z,10.86
2023-01-09T17:37:42.696Z,10.73
2023-01-09T17:40:17.550Z,10.77
2023-01-09T17:42:43.932Z,10.59
2023-01-09T17:45:11.586Z,10.09
2023-01-09T17:47:38.037Z,10.65
2023-01-09T17:50:05.803Z,10.32
2023-01-09T17:52:33.012Z,9.11
2023-01-09T17:55:05.037Z,10.25
2023-01-09T17:57:32.400Z,10.48
2023-01-09T17:59:59.006Z,10.70
2023-01-09T18:02:25.392Z,10.68
2023-01-09T18:04:52.043Z,10.55
2023-01-09T18:07:19.183Z,10.15
2023-01-09T18:09:45.569Z,10.36
2023-01-09T18:12:12.306Z,9.98
2023-01-09T18:14:38.993Z,10.43
2023-01-09T18:17:06.318Z,10.24
2023-01-09T18:19:33.278Z,10.68
2023-01-09T18:22:00.013Z,10.39
2023-01-09T18:24:26.943Z,10.62
2023-01-09T18:26:54.306Z,10.63
2023-01-09T18:29:21.333Z,10.78
2023-01-09T18:31:47.971Z,10.69
2023-01-09T18:34:14.513Z,10.54
2023-01-09T18:36:40.958Z,10.17
2023-01-09T18:39:08.703Z,9.84
2023-01-09T18:41:35.172Z,10.54
2023-01-09T18:44:02.016Z,10.62
2023-01-09T18:46:31.927Z,9.67
2023-01-09T18:49:00.804Z,10.44
2023-01-09T18:51:55.276Z,10.48
2023-01-09T18:54:21.746Z,10.01
2023-01-09T18:56:48.120Z,10.22
2023-01-09T18:59:14.444Z,10.25
2023-01-09T19:01:40.768Z,9.76
2023-01-09T19:04:07.154Z,9.91
2023-01-09T19:06:33.523Z,9.85
2023-01-09T19:08:59.993Z,9.78
2023-01-09T19:11:26.807Z,9.80
2023-01-09T19:13:53.369Z,9.97
2023-01-09T19:16:19.743Z,10.10
2023-01-09T19:18:46.252Z,9.98
2023-01-09T19:21:19.073Z,9.96
2023-01-09T19:23:46.642Z,9.96
2023-01-09T19:26:17.162Z,9.86
2023-01-09T19:28:46.435Z,9.85
2023-01-09T19:31:14.341Z,9.76
2023-01-09T19:33:40.700Z,9.71
2023-01-09T19:36:07.550Z,9.94
2023-01-09T19:38:33.951Z,10.10
2023-01-09T19:41:12.976Z,9.78
2023-01-09T19:43:40.618Z,9.83
2023-01-09T19:46:09.254Z,9.86
2023-01-09T19:48:36.313Z,9.92
2023-01-09T19:51:05.334Z,9.54
2023-01-09T19:53:32.953Z,9.98
2023-01-09T19:56:10.938Z,10.21
2023-01-09T19:58:37.622Z,9.66
2023-01-09T20:01:20.231Z,9.85
2023-01-09T20:03:48.317Z,9.90
2023-01-09T20:06:18.867Z,10.02
2023-01-09T20:08:47.568Z,9.68
2023-01-09T20:11:15.439Z,9.56
2023-01-09T20:13:42.534Z,8.97
2023-01-09T20:16:14.603Z,9.29
2023-01-09T20:18:41.002Z,9.76
2023-01-09T20:21:07.416Z,9.58
2023-01-09T20:23:34.448Z,9.53
2023-01-09T20:26:03.762Z,9.79
2023-01-09T20:28:30.471Z,9.92
2023-01-09T20:30:57.567Z,9.29
2023-01-09T20:33:24.298Z,9.64
2023-01-09T20:35:50.690Z,9.43
2023-01-09T20:38:17.234Z,9.36
2023-01-09T20:40:43.861Z,9.53
2023-01-09T20:43:12.405Z,9.51
2023-01-09T20:45:39.814Z,9.99
2023-01-09T20:48:06.576Z,9.46
2023-01-09T20:50:33.107Z,9.56
2023-01-09T20:52:59.474Z,10.01
2023-01-09T20:55:26.223Z,9.51
2023-01-09T20:57:52.571Z,9.65
2023-01-09T21:00:19.061Z,9.75
2023-01-09T21:02:45.380Z,9.85
2023-01-09T21:05:11.761Z,9.45
2023-01-09T21:07:38.099Z,9.67
2023-01-09T21:10:04.883Z,9.75
2023-01-09T21:12:37.606Z,9.45
2023-01-09T21:15:07.190Z,9.65
2023-01-09T21:17:36.227Z,9.53
2023-01-09T21:20:05.033Z,9.99
2023-01-09T21:22:35.331Z,9.44
2023-01-09T21:25:01.758Z,9.02
2023-01-09T21:27:37.887Z,9.64
2023-01-09T21:30:06.229Z,9.58
2023-01-09T21:32:32.781Z,9.39
2023-01-09T21:35:04.174Z,9.46
2023-01-09T21:37:35.425Z,9.44
2023-01-09T21:40:03.137Z,9.30
2023-01-09T21:42:48.146Z,9.37
2023-01-09T21:45:34.499Z,9.30
2023-01-09T21:48:07.288Z,9.12
2023-01-09T21:50:35.451Z,9.11
2023-01-09T21:53:01.892Z,8.76
2023-01-09T21:55:28.730Z,9.25
2023-01-09T21:57:56.046Z,9.05
2023-01-09T22:00:23.662Z,8.75
2023-01-09T22:02:50.661Z,8.35
2023-01-09T22:05:17.312Z,9.38
2023-01-09T22:07:43.636Z,9.16
2023-01-09T22:10:10.542Z,9.12
2023-01-09T22:12:37.075Z,9.12
2023-01-09T22:15:04.681Z,9.10
2023-01-09T22:17:31.140Z,8.64
2023-01-09T22:19:57.493Z,9.27
2023-01-09T22:22:23.855Z,8.60
2023-01-09T22:24:50.244Z,9.27
2023-01-09T22:27:16.671Z,8.95
2023-01-09T22:29:42.995Z,9.03
2023-01-09T22:32:09.311Z,8.95
2023-01-09T22:34:35.663Z,9.14
2023-01-09T22:37:02.264Z,9.10
2023-01-09T22:39:28.641Z,9.14
2023-01-09T22:41:55.184Z,9.25
2023-01-09T22:44:21.642Z,9.28
2023-01-09T22:46:48.047Z,9.20
2023-01-09T22:49:14.434Z,9.22
2023-01-09T22:51:40.764Z,9.49
2023-01-09T22:54:07.517Z,9.16
2023-01-09T22:56:33.885Z,9.21
2023-01-09T22:59:00.937Z,9.19
2023-01-09T23:01:28.054Z,9.20
2023-01-09T23:03:54.379Z,9.08
2023-01-09T23:06:22.594Z,8.94
2023-01-09T23:08:53.087Z,9.30
2023-01-09T23:11:43.798Z,9.25
2023-01-09T23:14:11.333Z,9.06
2023-01-09T23:16:37.751Z,8.85
2023-01-09T23:19:08.781Z,8.90
2023-01-09T23:21:36.260Z,8.43
2023-01-09T23:24:02.884Z,8.67
2023-01-09T23:26:29.235Z,8.73
2023-01-09T23:28:55.616Z,8.45
2023-01-09T23:31:22.033Z,8.63
2023-01-09T23:33:48.376Z,8.68
2023-01-09T23:36:14.687Z,8.66
2023-01-09T23:38:41.078Z,8.72
2023-01-09T23:41:08.360Z,8.89
2023-01-09T23:43:34.708Z,8.63
2023-01-09T23:46:01.527Z,8.77
2023-01-09T23:48:27.953Z,8.76
2023-01-09T23:50:54.782Z,9.00
2023-01-09T23:53:22.319Z,9.04
2023-01-09T23:55:49.692Z,8.83
2023-01-09T23:58:16.026Z,8.76
